»·PEaware :: N5939V KMRY-KSMX

N5939V :: KMRY-KSMX

FLIGHT INFORMATION

Flight Status: Arrived
Operator: Privately registered:
United States
More flights under this callsign
Pilot: Anonymous 30260 (30260)
Aircraft: SOCATA TBM-900
(TBM9)
More flights by this aircraft type
Origin: KMRY Monterey Peninsula
United States
Destination: KSMX Santa Maria Pub/Capt Hancock
United States
More flights between these airports :: More routes between these airports
Route: MRY5 SHOEY V27 MQO
File this flight plan on PilotEdge
Remarks:
Altitude:
(Current/Filed)
11,000ft
Speed:
(Current/Filed)
271kts
Departed: 30-Sep-20 02:06 PM
Arrived: 30-Sep-20 02:44 PM
Distance/Time
Traveled:
122nm/0:37
Distance/Time
To Go:
Arrived

Flight Plot

Page will automatically refresh every two minutes.

Flight plan parsing failed; only flown route is shown


Map Options




Map Legend


Flown Route
Filed Route
Departure Airport
Arrival Airport
Navaid (VOR, NDB)
Fix

Horizontal Profiles

Position Reports

Time Latitude Longitude Heading Altitude Ground
Speed
30-Sep-20 13:46 36.588482 -121.852936 295 170ft 0kts
30-Sep-20 13:47 36.588482 -121.852936 295 170ft 0kts
30-Sep-20 13:48 36.588482 -121.852936 295 170ft 0kts
30-Sep-20 13:49 36.588482 -121.852936 295 170ft 0kts
30-Sep-20 13:50 36.588482 -121.852936 295 170ft 0kts
30-Sep-20 13:51 36.588482 -121.852936 295 170ft 0kts
30-Sep-20 13:52 36.588482 -121.852936 295 170ft 0kts
30-Sep-20 13:53 36.588482 -121.852936 295 170ft 0kts
30-Sep-20 13:54 36.588482 -121.852936 295 170ft 0kts
30-Sep-20 13:55 36.588482 -121.852936 295 170ft 0kts
30-Sep-20 13:56 36.588482 -121.852936 295 170ft 0kts
30-Sep-20 13:57 36.588482 -121.852936 295 170ft 0kts
30-Sep-20 13:58 36.588482 -121.852936 295 170ft 0kts
30-Sep-20 13:59 36.588482 -121.852936 295 170ft 0kts
30-Sep-20 14:00 36.588482 -121.852936 295 170ft 0kts
30-Sep-20 14:01 36.588204 -121.850480 112 175ft 14kts
30-Sep-20 14:02 36.586628 -121.846011 126 195ft 13kts
30-Sep-20 14:03 36.584685 -121.840443 112 239ft 18kts
30-Sep-20 14:04 36.582785 -121.834203 88 229ft 13kts
30-Sep-20 14:05 36.588865 -121.849765 295 405ft 122kts
30-Sep-20 14:06 36.615032 -121.888567 342 2412ft 142kts
30-Sep-20 14:07 36.654445 -121.904170 342 4604ft 138kts
30-Sep-20 14:08 36.693031 -121.919731 342 6634ft 143kts
30-Sep-20 14:09 36.716885 -121.961264 260 8904ft 152kts
30-Sep-20 14:10 36.676653 -121.958445 154 10876ft 168kts
30-Sep-20 14:11 36.624095 -121.925168 152 11018ft 241kts
30-Sep-20 14:12 36.560353 -121.884195 152 11001ft 263kts
30-Sep-20 14:13 36.492349 -121.840569 152 10999ft 268kts
30-Sep-20 14:14 36.423236 -121.796319 152 10999ft 268kts
30-Sep-20 14:15 36.353859 -121.751990 152 11000ft 267kts
30-Sep-20 14:16 36.283683 -121.707241 152 11000ft 267kts
30-Sep-20 14:17 36.213263 -121.662428 152 11007ft 267kts
30-Sep-20 14:18 36.140627 -121.620828 156 11003ft 267kts
30-Sep-20 14:19 36.066713 -121.582216 156 11000ft 270kts
30-Sep-20 14:20 35.992124 -121.543323 156 10995ft 272kts
30-Sep-20 14:21 35.915023 -121.503208 156 10989ft 273kts
30-Sep-20 14:22 35.838854 -121.463667 156 10984ft 272kts
30-Sep-20 14:23 35.763296 -121.424521 156 10981ft 272kts
30-Sep-20 14:24 35.688011 -121.385598 156 10981ft 272kts
30-Sep-20 14:25 35.618703 -121.336802 127 10990ft 270kts
30-Sep-20 14:26 35.570306 -121.259491 127 10981ft 271kts
30-Sep-20 14:27 35.521408 -121.182164 127 10981ft 271kts
30-Sep-20 14:28 35.472557 -121.105088 126 10982ft 271kts
30-Sep-20 14:29 35.423629 -121.028023 127 10982ft 270kts
30-Sep-20 14:30 35.376803 -120.954441 127 10981ft 268kts
30-Sep-20 14:31 35.329124 -120.879733 127 10980ft 267kts
30-Sep-20 14:32 35.281408 -120.805091 127 11014ft 266kts
30-Sep-20 14:33 35.228688 -120.739182 144 11022ft 266kts
30-Sep-20 14:34 35.166868 -120.686197 144 11007ft 263kts
30-Sep-20 14:35 35.105530 -120.633616 144 10588ft 272kts
30-Sep-20 14:36 35.039965 -120.577500 145 9004ft 267kts
30-Sep-20 14:37 34.976181 -120.523039 143 7177ft 265kts
30-Sep-20 14:38 34.901156 -120.513518 152 4746ft 259kts
30-Sep-20 14:39 34.847291 -120.464558 141 3431ft 198kts
30-Sep-20 14:40 34.854986 -120.423609 347 1779ft 121kts
30-Sep-20 14:41 34.880569 -120.431955 326 682ft 81kts
30-Sep-20 14:42 34.896609 -120.450420 314 264ft 42kts
30-Sep-20 14:43 34.897919 -120.453574 180 264ft 0kts
30-Sep-20 14:44 34.895028 -120.453601 180 264ft 15kts
30-Sep-20 14:45 34.891668 -120.451843 89 264ft 13kts
30-Sep-20 14:46 34.890874 -120.450764 89 264ft 0kts
30-Sep-20 14:47 34.890874 -120.450764 89 264ft 0kts
30-Sep-20 14:48 34.890874 -120.450764 89 264ft 0kts
30-Sep-20 14:49 34.890874 -120.450764 89 264ft 0kts
30-Sep-20 14:50 34.890874 -120.450764 89 264ft 0kts
30-Sep-20 14:51 34.890874 -120.450764 89 264ft 0kts

Navigation Log

Ident Type
Flight plan parsing failed, navigation log unavailable